Time;durP1;ratioP1;P1;durP2;ratioP2;P2;SDS_P1;SDS_P2;PMS_P1;PMS_P2;Temp;Humidity;BMP_temperature;BMP_pressure;BME280_temperature;BME280_humidity;BME280_pressure;Samples;Min_cycle;Max_cycle;Signal;HPM_P1;HPM_P2
2023/09/08 00:00:11;;;;;;;8.13;4.85;;;487.30;2380.80;;;;;;5097258;28;20028;-86
2023/09/08 00:02:36;;;;;;;7.32;4.63;;;487.20;2380.80;;;;;;5099731;28;20063;-88
2023/09/08 00:05:02;;;;;;;8.75;4.70;;;487.30;2380.80;;;;;;5098280;28;20057;-87
2023/09/08 00:07:28;;;;;;;8.43;5.13;;;487.00;2380.80;;;;;;5096624;28;20036;-88
2023/09/08 00:09:54;;;;;;;7.88;4.63;;;486.90;2380.80;;;;;;5098828;28;20032;-86
2023/09/08 00:12:21;;;;;;;6.53;4.60;;;486.90;2380.80;;;;;;5097642;28;20088;-87
2023/09/08 00:14:46;;;;;;;6.93;4.50;;;486.70;2380.80;;;;;;5097408;28;20322;-86
2023/09/08 00:17:15;;;;;;;10.02;4.97;;;486.70;2380.80;;;;;;5096614;28;20084;-85
2023/09/08 00:19:59;;;;;;;8.93;6.07;;;486.70;2380.80;;;;;;5112952;28;20032;-84
2023/09/08 00:22:24;;;;;;;6.97;4.60;;;486.60;2380.80;;;;;;5118699;28;20043;-87
2023/09/08 00:24:50;;;;;;;6.63;4.53;;;486.60;2380.80;;;;;;5118531;28;20035;-88
2023/09/08 00:27:17;;;;;;;7.28;4.95;;;486.60;2380.80;;;;;;5119238;28;20028;-87
2023/09/08 00:29:44;;;;;;;7.00;4.72;;;486.50;2380.80;;;;;;5119296;28;20034;-88
2023/09/08 00:32:09;;;;;;;7.20;4.20;;;486.50;2380.80;;;;;;5119538;28;20082;-87
2023/09/08 00:34:53;;;;;;;7.10;4.57;;;486.50;2380.80;;;;;;5098774;28;20104;-86
2023/09/08 00:37:19;;;;;;;7.07;4.70;;;486.40;2380.80;;;;;;5098569;28;20047;-87
2023/09/08 00:39:45;;;;;;;6.57;4.50;;;486.40;2380.80;;;;;;5108698;28;20039;-88
2023/09/08 00:42:10;;;;;;;5.75;3.97;;;486.40;2380.80;;;;;;5118624;28;20157;-85
2023/09/08 00:44:36;;;;;;;7.15;4.40;;;486.50;2380.80;;;;;;5117496;28;20405;-87
2023/09/08 00:47:02;;;;;;;8.05;4.60;;;461.60;2380.80;;;;;;5117409;28;20027;-86
2023/09/08 00:49:28;;;;;;;8.57;4.82;;;461.60;2380.80;;;;;;5111967;28;20027;-86
2023/09/08 00:51:54;;;;;;;7.57;4.40;;;461.60;2380.80;;;;;;5117675;28;20055;-89
2023/09/08 00:54:20;;;;;;;11.20;4.50;;;461.50;2380.80;;;;;;5118457;28;20023;-85
2023/09/08 00:56:48;;;;;;;9.73;4.82;;;461.40;2380.80;;;;;;5118333;28;20028;-89
2023/09/08 00:59:14;;;;;;;11.13;7.13;;;461.40;2380.80;;;;;;5118253;28;20197;-89
2023/09/08 01:01:40;;;;;;;14.02;11.63;;;461.40;2380.80;;;;;;5119170;28;20039;-86
2023/09/08 01:04:05;;;;;;;12.30;9.40;;;461.40;2380.80;;;;;;5116087;28;20027;-89
2023/09/08 01:07:09;;;;;;;9.10;6.63;;;461.50;2380.80;;;;;;5109130;28;20401;-88
2023/09/08 01:09:36;;;;;;;6.95;4.90;;;461.60;2380.80;;;;;;5105378;28;20060;-85
2023/09/08 01:12:07;;;;;;;6.40;4.53;;;461.50;2380.80;;;;;;5117111;28;20032;-88
2023/09/08 01:14:33;;;;;;;7.18;4.32;;;461.70;2380.80;;;;;;5116820;28;20493;-86
2023/09/08 01:16:58;;;;;;;8.02;4.63;;;461.50;2380.80;;;;;;5117517;28;20024;-86
2023/09/08 01:19:24;;;;;;;7.82;4.57;;;461.50;2380.80;;;;;;5109176;28;20508;-90
2023/09/08 01:22:02;;;;;;;8.07;4.55;;;461.40;2380.80;;;;;;5096210;28;20032;-90
2023/09/08 01:24:57;;;;;;;8.02;4.65;;;;;;;;;;5097791;28;20024;-87
2023/09/08 01:27:24;;;;;;;10.00;4.88;;;;;;;;;;5097706;28;20024;-88
2023/09/08 01:29:51;;;;;;;8.68;4.70;;;;;;;;;;5097049;28;20457;-89
2023/09/08 01:32:17;;;;;;;7.20;4.20;;;;;;;;;;5097112;28;20473;-87
2023/09/08 01:34:43;;;;;;;7.10;4.60;;;;;;;;;;5096224;28;20367;-82
2023/09/08 01:37:09;;;;;;;7.95;4.90;;;;;;;;;;5101402;28;20061;-80
2023/09/08 01:39:35;;;;;;;6.15;4.30;;;;;;;;;;5095015;28;20222;-80
2023/09/08 01:42:01;;;;;;;7.65;4.80;;;;;;;;;;5094963;28;20033;-81
2023/09/08 01:44:28;;;;;;;7.22;4.68;;;;;;;;;;5095956;28;20489;-82
2023/09/08 01:46:56;;;;;;;6.63;4.40;;;;;;;;;;5095655;28;20024;-82
2023/09/08 01:49:23;;;;;;;7.18;4.45;;;;;;;;;;5096089;28;20028;-82
2023/09/08 01:51:51;;;;;;;7.03;4.60;;;;;;;;;;5095920;28;20500;-80
2023/09/08 01:54:17;;;;;;;6.20;4.25;;;;;;;;;;5098009;28;20462;-80
2023/09/08 01:56:43;;;;;;;6.90;4.28;;;;;;;;;;5114411;28;20039;-81
2023/09/08 01:59:09;;;;;;;6.80;4.43;;;;;;;;;;5116995;28;20020;-82
2023/09/08 02:01:36;;;;;;;8.13;5.50;;;;;;;;;;5113580;28;20036;-82
2023/09/08 02:04:02;;;;;;;8.90;5.43;;;;;;;;;;5116237;28;20521;-82
2023/09/08 02:06:47;;;;;;;6.55;4.80;;;;;;;;;;5116857;28;20096;-83
2023/09/08 02:09:15;;;;;;;7.53;4.97;;;;;;;;;;5115917;28;20075;-83
2023/09/08 02:11:42;;;;;;;6.30;4.55;;;;;;;;;;5112338;28;20040;-81
2023/09/08 02:14:08;;;;;;;6.57;4.25;;;;;;;;;;5103273;28;20193;-81
2023/09/08 02:16:34;;;;;;;7.43;4.40;;;;;;;;;;5115928;28;20030;-82
2023/09/08 02:19:01;;;;;;;7.63;4.30;;;;;;;;;;5101303;28;20377;-82
2023/09/08 02:24:58;;;;;;;7.40;4.07;;;;;;;;;;5117724;28;20065;-83
2023/09/08 02:27:24;;;;;;;6.85;4.30;;;;;;;;;;5107069;28;20020;-83
2023/09/08 02:29:50;;;;;;;6.78;4.45;;;;;;;;;;5094831;28;20055;-84
2023/09/08 02:32:16;;;;;;;6.78;4.20;;;;;;;;;;5096828;28;20141;-82
2023/09/08 02:34:43;;;;;;;6.60;4.10;;;;;;;;;;5096017;28;20020;-85
2023/09/08 02:37:10;;;;;;;7.40;4.47;;;;;;;;;;5094076;28;20166;-83
2023/09/08 02:39:36;;;;;;;8.07;4.32;;;;;;;;;;5095233;28;20112;-83
2023/09/08 02:42:02;;;;;;;6.90;4.57;;;;;;;;;;5098463;28;20028;-83
2023/09/08 02:44:29;;;;;;;7.63;4.15;;;;;;;;;;5094701;28;20047;-83
2023/09/08 02:46:55;;;;;;;6.93;4.65;;;;;;;;;;5095452;28;20036;-81
2023/09/08 02:49:22;;;;;;;7.45;4.63;;;;;;;;;;5094482;28;20062;-80
2023/09/08 02:52:21;;;;;;;6.60;4.40;;;;;;;;;;5093987;28;20426;-82
2023/09/08 02:54:47;;;;;;;8.18;4.22;;;;;;;;;;5110221;28;20079;-82
2023/09/08 02:57:13;;;;;;;6.75;4.30;;;;;;;;;;5096586;28;20032;-82
2023/09/08 02:59:39;;;;;;;7.57;4.35;;;;;;;;;;5093216;28;20119;-83
2023/09/08 03:02:07;;;;;;;7.88;4.55;;;;;;;;;;5095383;28;20012;-83
2023/09/08 03:04:33;;;;;;;7.30;4.28;;;;;;;;;;5096579;28;20028;-88
2023/09/08 03:06:58;;;;;;;8.43;4.57;;;460.90;2380.80;;;;;;5096081;28;20020;-86
2023/09/08 03:09:24;;;;;;;6.70;4.22;;;436.10;2355.20;;;;;;5096450;28;20025;-88
2023/09/08 03:11:50;;;;;;;6.00;4.10;;;436.00;2355.20;;;;;;5111329;28;20051;-86
2023/09/08 03:14:16;;;;;;;6.47;4.07;;;436.00;2355.20;;;;;;5114790;28;20027;-88
2023/09/08 03:16:41;;;;;;;6.60;4.15;;;435.90;2355.20;;;;;;5120306;28;20020;-86
2023/09/08 03:19:08;;;;;;;7.65;4.18;;;435.90;2355.20;;;;;;5119465;28;20036;-85
2023/09/08 03:21:34;;;;;;;6.35;4.35;;;435.80;2355.20;;;;;;5120642;28;20019;-82
2023/09/08 03:24:00;;;;;;;7.47;4.50;;;435.70;2355.20;;;;;;5121204;28;20092;-86
2023/09/08 03:26:25;;;;;;;6.35;4.15;;;435.70;2355.20;;;;;;5120247;28;20122;-86
2023/09/08 03:28:51;;;;;;;8.93;4.20;;;;;;;;;;5118254;28;20114;-82
2023/09/08 03:31:19;;;;;;;7.97;4.25;;;;;;;;;;5116458;28;20085;-87
2023/09/08 03:33:46;;;;;;;7.35;4.28;;;;;;;;;;5120592;28;20020;-87
2023/09/08 03:36:12;;;;;;;7.40;4.22;;;;;;;;;;5120426;28;20477;-86
2023/09/08 03:38:39;;;;;;;7.35;4.35;;;;;;;;;;5118817;28;20031;-81
2023/09/08 03:41:06;;;;;;;8.27;4.10;;;;;;;;;;5117343;28;20036;-83
2023/09/08 03:43:32;;;;;;;6.32;4.13;;;;;;;;;;5117687;28;20500;-81
2023/09/08 03:46:00;;;;;;;7.85;4.65;;;;;;;;;;5119468;28;20100;-86
2023/09/08 03:48:26;;;;;;;5.75;3.92;;;;;;;;;;5113177;28;20043;-86
2023/09/08 03:50:52;;;;;;;7.20;4.18;;;;;;;;;;5114987;28;20469;-82
2023/09/08 03:53:18;;;;;;;7.32;4.40;;;;;;;;;;5119152;28;20024;-84
2023/09/08 03:55:44;;;;;;;6.68;3.85;;;;;;;;;;5117692;28;20027;-83
2023/09/08 03:58:10;;;;;;;10.13;4.55;;;;;;;;;;5118160;28;20024;-82
2023/09/08 04:00:37;;;;;;;8.95;4.50;;;;;;;;;;5111645;28;20024;-83
2023/09/08 04:03:03;;;;;;;6.50;4.20;;;;;;;;;;5102177;28;20019;-84
2023/09/08 04:05:29;;;;;;;7.47;4.57;;;;;;;;;;5117475;28;20050;-84
2023/09/08 04:07:55;;;;;;;6.10;3.92;;;;;;;;;;5117278;28;20027;-84
2023/09/08 04:10:21;;;;;;;6.32;4.30;;;;;;;;;;5116391;28;20023;-83
2023/09/08 04:12:47;;;;;;;7.22;4.53;;;;;;;;;;5119086;28;20016;-86
2023/09/08 04:15:13;;;;;;;6.40;4.10;;;;;;;;;;5118735;28;20110;-84
2023/09/08 04:17:39;;;;;;;7.80;4.30;;;;;;;;;;5114012;28;20026;-88
2023/09/08 04:20:06;;;;;;;6.50;4.55;;;;;;;;;;5096709;28;20073;-85
2023/09/08 04:22:33;;;;;;;6.63;4.15;;;;;;;;;;5112192;28;20373;-83
2023/09/08 04:25:00;;;;;;;7.40;4.35;;;;;;;;;;5118095;28;20132;-81
2023/09/08 04:27:26;;;;;;;6.05;4.03;;;;;;;;;;5118940;28;20020;-87
2023/09/08 04:29:52;;;;;;;6.72;4.22;;;;;;;;;;5118282;28;20472;-84
2023/09/08 04:32:18;;;;;;;8.18;4.82;;;;;;;;;;5118195;28;20060;-83
2023/09/08 04:34:48;;;;;;;9.60;4.72;;;;;;;;;;5114052;28;20035;-86
2023/09/08 04:37:15;;;;;;;7.03;4.38;;;;;;;;;;5098795;28;20036;-86
2023/09/08 04:39:41;;;;;;;7.32;4.30;;;;;;;;;;5095519;28;20024;-84
2023/09/08 04:42:07;;;;;;;7.70;4.28;;;;;;;;;;5096146;28;20024;-83
2023/09/08 04:44:33;;;;;;;7.38;4.38;;;;;;;;;;5095888;28;20139;-85
2023/09/08 04:46:59;;;;;;;6.95;4.25;;;;;;;;;;5097224;28;20414;-84
2023/09/08 04:49:25;;;;;;;8.18;4.20;;;;;;;;;;5096841;28;20027;-83
2023/09/08 04:51:51;;;;;;;7.05;4.25;;;;;;;;;;5096023;28;20036;-83
2023/09/08 04:54:17;;;;;;;8.18;4.35;;;;;;;;;;5095293;28;20032;-85
2023/09/08 04:56:43;;;;;;;7.15;4.50;;;;;;;;;;5101160;28;20035;-83
2023/09/08 04:59:10;;;;;;;8.05;4.57;;;;;;;;;;5106007;28;20027;-85
2023/09/08 05:01:37;;;;;;;10.13;4.50;;;;;;;;;;5116709;28;20047;-85
2023/09/08 05:04:04;;;;;;;8.45;4.32;;;;;;;;;;5117538;28;20479;-84
2023/09/08 05:09:33;;;;;;;7.10;4.47;;;;;;;;;;5100099;28;20053;-85
2023/09/08 05:12:00;;;;;;;8.05;4.25;;;;;;;;;;5099531;28;20111;-85
2023/09/08 05:14:27;;;;;;;7.35;4.32;;;;;;;;;;5098367;28;20020;-87
2023/09/08 05:16:56;;;;;;;6.55;4.00;;;;;;;;;;5116907;28;20031;-87
2023/09/08 05:19:22;;;;;;;9.50;4.60;;;;;;;;;;5115153;28;20432;-88
2023/09/08 05:21:50;;;;;;;7.55;4.55;;;;;;;;;;5116767;28;20016;-89
2023/09/08 05:24:16;;;;;;;7.50;4.65;;;;;;;;;;5114175;28;20099;-89
2023/09/08 05:26:42;;;;;;;9.02;5.57;;;;;;;;;;5097867;28;20111;-87
2023/09/08 05:29:08;;;;;;;10.88;6.25;;;;;;;;;;5095673;28;20056;-85
2023/09/08 05:31:35;;;;;;;9.32;6.38;;;;;;;;;;5095631;28;20108;-86
2023/09/08 05:34:01;;;;;;;11.90;6.63;;;;;;;;;;5094590;28;20041;-87
2023/09/08 05:36:45;;;;;;;10.40;6.10;;;;;;;;;;5094637;28;20027;-89
2023/09/08 05:39:13;;;;;;;7.70;5.30;;;;;;;;;;5101650;28;20038;-90
2023/09/08 05:41:39;;;;;;;8.75;5.30;;;;;;;;;;5111531;28;20445;-88
2023/09/08 05:44:05;;;;;;;8.77;5.07;;;461.00;2380.80;;;;;;5094255;28;20045;-86
2023/09/08 05:46:31;;;;;;;7.60;4.72;;;460.80;2380.80;;;;;;5101773;28;20442;-84
2023/09/08 05:48:59;;;;;;;7.07;4.53;;;461.00;2380.80;;;;;;5105786;28;20023;-88
2023/09/08 05:54:47;;;;;;;6.78;4.70;;;461.20;2380.80;;;;;;5097257;28;20043;-90
2023/09/08 05:57:13;;;;;;;7.68;4.78;;;;;;;;;;5096319;28;20024;-89
2023/09/08 05:59:39;;;;;;;8.13;4.80;;;461.70;2380.80;;;;;;5096289;28;20457;-88
2023/09/08 06:02:04;;;;;;;7.40;5.00;;;461.60;2380.80;;;;;;5115773;28;20027;-80
2023/09/08 06:04:32;;;;;;;7.85;5.03;;;486.50;2380.80;;;;;;5115196;28;20054;-81
2023/09/08 06:06:58;;;;;;;9.98;5.07;;;486.80;2380.80;;;;;;5116653;28;20031;-81
2023/09/08 06:09:23;;;;;;;9.10;5.22;;;486.80;2380.80;;;;;;5104490;28;20028;-81
2023/09/08 06:11:52;;;;;;;8.57;5.13;;;486.70;2380.80;;;;;;5098471;28;20036;-80
2023/09/08 06:14:18;;;;;;;10.52;5.40;;;487.20;2380.80;;;;;;5097333;28;20026;-80
2023/09/08 06:16:43;;;;;;;8.95;5.00;;;487.30;2380.80;;;;;;5096732;28;20119;-81
2023/09/08 06:19:09;;;;;;;9.50;5.65;;;487.30;2380.80;;;;;;5095871;28;20020;-81
2023/09/08 06:21:35;;;;;;;8.70;5.90;;;512.60;2380.80;;;;;;5096326;28;20465;-80
2023/09/08 06:24:00;;;;;;;7.25;5.25;;;589.00;2432.00;;;;;;5115561;28;20031;-80
2023/09/08 06:26:26;;;;;;;8.05;5.55;;;;;;;;;;5120420;28;20400;-86
2023/09/08 06:28:52;;;;;;;9.15;5.25;;;;;;;;;;5127880;28;20461;-85
2023/09/08 06:31:18;;;;;;;7.10;4.80;;;820.00;1561.60;;;;;;5104941;28;20545;-80
2023/09/08 06:33:44;;;;;;;6.88;4.43;;;845.70;1408.00;;;;;;5097284;28;20100;-80
2023/09/08 06:36:10;;;;;;;7.60;4.75;;;921.60;1228.80;;;;;;5094314;28;20036;-80
2023/09/08 06:38:35;;;;;;;7.15;4.70;;;947.60;1177.60;;;;;;5114942;28;20481;-81
2023/09/08 06:41:01;;;;;;;7.05;4.97;;;973.00;1100.80;;;;;;5113277;28;20028;-83
2023/09/08 06:43:27;;;;;;;5.97;4.57;;;973.70;1049.60;;;;;;5103751;28;20044;-80
2023/09/08 06:45:53;;;;;;;6.60;4.72;;;;;;;;;;5108085;28;20494;-79
2023/09/08 06:48:19;;;;;;;6.75;4.97;;;;;;;;;;5126143;28;20035;-82
2023/09/08 06:50:44;;;;;;;7.63;4.70;;;1050.50;972.80;;;;;;5125070;28;20042;-84
2023/09/08 06:53:12;;;;;;;5.68;4.68;;;1075.20;972.80;;;;;;5124686;28;20019;-85
2023/09/08 06:55:38;;;;;;;6.88;4.95;;;1049.90;947.20;;;;;;5109259;28;20027;-87
2023/09/08 06:58:04;;;;;;;8.23;4.82;;;1075.20;947.20;;;;;;5126657;28;20046;-83
2023/09/08 07:00:30;;;;;;;6.50;4.72;;;1075.50;947.20;;;;;;5127980;27;20039;-83
2023/09/08 07:02:56;;;;;;;7.32;4.97;;;1050.30;972.80;;;;;;5124865;28;20030;-83
2023/09/08 07:05:22;;;;;;;6.95;5.50;;;1075.50;947.20;;;;;;5122920;28;20565;-82
2023/09/08 07:07:49;;;;;;;6.82;5.32;;;1050.30;947.20;;;;;;5123796;28;20111;-85
2023/09/08 07:10:19;;;;;;;6.57;4.80;;;1050.00;972.80;;;;;;5124817;28;20036;-84
2023/09/08 07:12:44;;;;;;;7.47;5.30;;;998.50;947.20;;;;;;5111502;28;20027;-81
2023/09/08 07:15:10;;;;;;;7.47;5.50;;;947.80;998.40;;;;;;5106517;28;20063;-84
2023/09/08 07:17:36;;;;;;;6.93;5.32;;;896.90;1049.60;;;;;;5109532;28;20020;-83
2023/09/08 07:20:03;;;;;;;7.05;5.03;;;871.00;1126.40;;;;;;5127319;27;20039;-89
2023/09/08 07:22:28;;;;;;;7.43;5.68;;;844.90;1203.20;;;;;;5123111;27;20020;-82
2023/09/08 07:24:54;;;;;;;8.10;5.45;;;819.50;1254.40;;;;;;5124290;28;20035;-89
2023/09/08 07:27:20;;;;;;;7.55;5.20;;;768.80;1331.20;;;;;;5123349;28;20027;-82
2023/09/08 07:29:47;;;;;;;7.75;5.13;;;768.40;1331.20;;;;;;5120399;27;20043;-82
2023/09/08 07:32:13;;;;;;;7.28;5.50;;;768.00;1408.00;;;;;;5119723;27;20031;-83
2023/09/08 07:34:39;;;;;;;7.50;5.60;;;742.40;1484.80;;;;;;5114287;28;20020;-78
2023/09/08 07:37:04;;;;;;;8.35;5.50;;;717.30;1484.80;;;;;;5122280;28;20053;-80
2023/09/08 07:39:31;;;;;;;8.75;5.70;;;717.60;1484.80;;;;;;5123961;28;20031;-81
2023/09/08 07:41:57;;;;;;;9.43;6.10;;;717.50;1510.40;;;;;;5113406;28;20111;-81
2023/09/08 07:44:23;;;;;;;8.30;5.82;;;717.20;1484.80;;;;;;5105472;28;20090;-81
2023/09/08 07:46:51;;;;;;;9.38;5.55;;;717.30;1536.00;;;;;;5113718;28;20034;-83
2023/09/08 07:49:19;;;;;;;8.45;5.82;;;717.40;1536.00;;;;;;5100920;28;20044;-81
2023/09/08 07:51:45;;;;;;;8.98;5.68;;;717.60;1484.80;;;;;;5116537;28;20030;-81
2023/09/08 07:54:11;;;;;;;7.22;5.30;;;742.50;1510.40;;;;;;5127786;28;20380;-82
2023/09/08 07:56:40;;;;;;;9.07;5.63;;;743.00;1484.80;;;;;;5121407;28;20477;-81
2023/09/08 07:59:06;;;;;;;8.45;5.75;;;742.80;1510.40;;;;;;5124627;27;20024;-81
2023/09/08 08:01:32;;;;;;;8.85;5.70;;;742.80;1484.80;;;;;;5116889;28;20020;-83
2023/09/08 08:03:58;;;;;;;7.85;5.45;;;768.10;1459.20;;;;;;5111002;28;20521;-84
2023/09/08 08:06:24;;;;;;;7.70;5.35;;;768.00;1459.20;;;;;;5117974;28;20035;-83
2023/09/08 08:08:50;;;;;;;8.15;5.30;;;768.20;1459.20;;;;;;5111919;28;20024;-82
2023/09/08 08:11:20;;;;;;;8.40;5.30;;;768.50;1408.00;;;;;;5097456;28;20576;-79
2023/09/08 08:13:46;;;;;;;8.75;5.07;;;768.40;1382.40;;;;;;5096568;28;20540;-81
2023/09/08 08:16:11;;;;;;;9.48;5.60;;;768.40;1433.60;;;;;;5111394;28;20020;-81
2023/09/08 08:18:37;;;;;;;7.80;5.18;;;768.30;1433.60;;;;;;5119032;28;20028;-84
2023/09/08 08:21:03;;;;;;;7.93;5.07;;;768.50;1408.00;;;;;;5098766;28;20023;-81
2023/09/08 08:23:30;;;;;;;7.00;5.07;;;793.80;1408.00;;;;;;5098030;28;20154;-79
2023/09/08 08:25:56;;;;;;;8.15;4.80;;;;;;;;;;5097665;28;20142;-81
2023/09/08 08:28:24;;;;;;;7.65;4.68;;;;;;;;;;5095846;28;20029;-81
2023/09/08 08:30:51;;;;;;;9.63;5.28;;;768.60;1382.40;;;;;;5096164;28;20020;-79
2023/09/08 08:33:18;;;;;;;6.80;4.93;;;743.00;1433.60;;;;;;5095787;28;20035;-82
2023/09/08 08:35:50;;;;;;;8.52;4.75;;;742.90;1433.60;;;;;;5095679;28;20555;-84
2023/09/08 08:38:16;;;;;;;8.65;5.03;;;768.00;1459.20;;;;;;5096832;28;20517;-79
2023/09/08 08:40:42;;;;;;;8.07;4.72;;;768.20;1433.60;;;;;;5095687;28;20115;-81
2023/09/08 08:43:08;;;;;;;8.10;4.70;;;768.20;1433.60;;;;;;5096937;28;20052;-79
2023/09/08 08:45:35;;;;;;;6.55;4.75;;;;;;;;;;5096690;28;20028;-79
2023/09/08 08:48:03;;;;;;;7.65;4.55;;;793.80;1382.40;;;;;;5097368;28;20085;-79
2023/09/08 08:50:31;;;;;;;6.88;4.70;;;793.60;1356.80;;;;;;5098040;28;20020;-82
2023/09/08 08:52:57;;;;;;;7.75;4.80;;;768.90;1382.40;;;;;;5097194;28;20031;-79
2023/09/08 08:55:26;;;;;;;6.72;4.45;;;;;;;;;;5113838;28;20046;-82
2023/09/08 08:57:52;;;;;;;6.63;4.07;;;;;;;;;;5114336;28;20039;-79
2023/09/08 09:00:19;;;;;;;6.43;4.43;;;;;;;;;;5113905;28;20044;-79
2023/09/08 09:02:48;;;;;;;7.88;4.18;;;794.50;1356.80;;;;;;5109077;28;20023;-82
2023/09/08 09:05:19;;;;;;;6.88;4.65;;;;;;;;;;5110216;27;20036;-79
2023/09/08 09:07:45;;;;;;;6.85;4.30;;;;;;;;;;5106845;28;20134;-78
2023/09/08 09:10:11;;;;;;;6.00;3.85;;;;;;;;;;5100781;28;20493;-80
2023/09/08 09:12:38;;;;;;;5.00;3.88;;;;;;;;;;5112821;27;20035;-79
2023/09/08 09:15:04;;;;;;;7.03;4.38;;;;;;;;;;5130595;27;20493;-80
2023/09/08 09:17:31;;;;;;;6.22;4.40;;;;;;;;;;5112032;28;20049;-80
2023/09/08 09:20:32;;;;;;;6.78;4.10;;;820.00;1305.60;;;;;;5114059;28;20027;-78
2023/09/08 09:22:58;;;;;;;5.07;3.92;;;819.70;1280.00;;;;;;5028548;28;20460;-79
2023/09/08 09:25:31;;;;;;;5.65;4.00;;;819.40;1331.20;;;;;;5008399;28;20041;-79
2023/09/08 09:27:58;;;;;;;5.80;3.75;;;;;;;;;;5031452;28;20056;-80
2023/09/08 09:30:26;;;;;;;7.18;4.10;;;820.00;1280.00;;;;;;5019970;28;20112;-80
2023/09/08 09:33:04;;;;;;;6.53;4.32;;;844.80;1254.40;;;;;;5015886;28;20545;-79
2023/09/08 09:35:41;;;;;;;5.65;4.15;;;845.10;1228.80;;;;;;5014828;28;20040;-78
2023/09/08 09:38:08;;;;;;;7.22;4.32;;;820.10;1203.20;;;;;;5041685;28;20033;-80
2023/09/08 09:40:34;;;;;;;7.68;4.43;;;845.10;1254.40;;;;;;5031947;28;20033;-79
2023/09/08 09:43:00;;;;;;;9.43;4.28;;;845.10;1254.40;;;;;;5032388;28;20041;-80
2023/09/08 09:45:26;;;;;;;7.28;4.10;;;845.40;1254.40;;;;;;5032237;28;20530;-79
2023/09/08 09:47:52;;;;;;;5.10;3.60;;;870.40;1203.20;;;;;;5032496;28;20028;-80
2023/09/08 09:50:32;;;;;;;5.50;3.50;;;844.80;1177.60;;;;;;5015337;28;20033;-79
2023/09/08 09:53:00;;;;;;;5.05;3.55;;;819.70;1228.80;;;;;;5011407;28;20116;-79
2023/09/08 09:55:27;;;;;;;4.97;3.55;;;819.70;1203.20;;;;;;5032248;28;20146;-79
2023/09/08 09:57:58;;;;;;;4.63;3.28;;;820.10;1177.60;;;;;;5105640;28;20077;-80
2023/09/08 10:00:28;;;;;;;4.75;3.33;;;820.00;1177.60;;;;;;5115157;28;20031;-79
2023/09/08 10:02:55;;;;;;;4.57;3.30;;;819.90;1152.00;;;;;;5115077;27;20027;-80
2023/09/08 10:05:21;;;;;;;4.50;3.20;;;819.90;1152.00;;;;;;5114779;28;20357;-80
2023/09/08 10:07:50;;;;;;;5.88;3.40;;;820.00;1152.00;;;;;;5113693;28;20118;-79
2023/09/08 10:10:17;;;;;;;6.53;3.30;;;819.70;1177.60;;;;;;5114630;28;20102;-79
2023/09/08 10:12:45;;;;;;;4.82;3.25;;;819.70;1152.00;;;;;;5114905;28;20114;-79
2023/09/08 10:15:16;;;;;;;5.30;3.10;;;820.00;1177.60;;;;;;5114602;28;20048;-78
2023/09/08 10:17:45;;;;;;;5.13;3.00;;;820.00;1152.00;;;;;;5115023;28;20039;-79
2023/09/08 10:20:14;;;;;;;4.95;2.97;;;820.00;1100.80;;;;;;5114646;28;20024;-79
2023/09/08 10:22:43;;;;;;;5.40;2.90;;;845.10;1152.00;;;;;;5112501;28;20073;-78
2023/09/08 10:25:11;;;;;;;3.75;2.72;;;844.80;1152.00;;;;;;5114075;28;20024;-79
2023/09/08 10:27:37;;;;;;;3.83;2.78;;;819.70;1100.80;;;;;;5114138;28;20023;-79
2023/09/08 10:30:06;;;;;;;4.20;2.75;;;794.10;1126.40;;;;;;5113671;28;20042;-79
2023/09/08 10:32:36;;;;;;;5.40;3.00;;;794.40;1126.40;;;;;;5112850;28;20100;-82
2023/09/08 10:35:04;;;;;;;4.00;2.78;;;819.50;1126.40;;;;;;5109494;28;20047;-80
2023/09/08 10:37:30;;;;;;;4.05;2.60;;;794.50;1126.40;;;;;;5101656;28;20105;-85
2023/09/08 10:40:16;;;;;;;6.45;3.08;;;793.90;1126.40;;;;;;5101708;28;20024;-82
2023/09/08 10:42:44;;;;;;;4.20;2.70;;;819.20;1126.40;;;;;;5109204;28;20028;-86
2023/09/08 10:45:17;;;;;;;5.43;3.45;;;819.70;1126.40;;;;;;5109453;28;20056;-80
2023/09/08 10:47:47;;;;;;;5.70;3.15;;;;;;;;;;5106422;28;20036;-86
2023/09/08 10:50:19;;;;;;;4.55;3.03;;;;;;;;;;5099175;28;20024;-87
2023/09/08 10:52:47;;;;;;;5.63;2.97;;;;;;;;;;5105205;28;20040;-79
2023/09/08 10:55:13;;;;;;;3.95;3.08;;;;;;;;;;5100125;28;20020;-79
2023/09/08 10:57:45;;;;;;;5.40;3.25;;;844.80;1126.40;;;;;;5105917;28;20024;-84
2023/09/08 11:00:14;;;;;;;5.47;3.42;;;;;;;;;;5102734;28;20028;-84
2023/09/08 11:02:50;;;;;;;6.85;3.33;;;845.10;1203.20;;;;;;5102020;28;20081;-84
2023/09/08 11:05:16;;;;;;;6.30;3.22;;;845.20;1177.60;;;;;;5093346;28;20036;-84
2023/09/08 11:07:46;;;;;;;5.95;3.30;;;845.60;1203.20;;;;;;5095418;28;20040;-85
2023/09/08 11:10:13;;;;;;;4.00;3.20;;;845.60;1177.60;;;;;;5111290;28;20022;-85
2023/09/08 11:12:38;;;;;;;4.65;3.15;;;845.20;1177.60;;;;;;5115018;28;20045;-84
2023/09/08 11:15:08;;;;;;;4.28;3.10;;;845.20;1177.60;;;;;;5115683;28;20024;-86
2023/09/08 11:17:39;;;;;;;4.28;2.88;;;845.10;1152.00;;;;;;5114858;28;20030;-82
2023/09/08 11:20:12;;;;;;;5.30;3.05;;;820.00;1126.40;;;;;;5115096;28;20023;-83
2023/09/08 11:22:39;;;;;;;4.28;3.05;;;844.80;1152.00;;;;;;5115670;28;20019;-84
2023/09/08 11:25:11;;;;;;;5.55;3.10;;;845.20;1152.00;;;;;;5109339;28;20101;-82
2023/09/08 11:27:39;;;;;;;3.90;2.80;;;845.40;1100.80;;;;;;5103030;28;20052;-83
2023/09/08 11:30:07;;;;;;;4.45;3.25;;;845.60;1100.80;;;;;;5102628;28;20060;-82
2023/09/08 11:32:35;;;;;;;4.22;2.92;;;870.80;1100.80;;;;;;5104485;28;20073;-84
2023/09/08 11:35:09;;;;;;;4.60;3.20;;;870.50;1100.80;;;;;;5110699;27;20085;-83
2023/09/08 11:37:38;;;;;;;;;;;845.60;1126.40;;;;;;5104049;28;20081;-83
2023/09/08 11:40:23;;;;;;;4.18;2.92;;;870.80;1100.80;;;;;;5106032;28;19908;-79
2023/09/08 11:42:51;;;;;;;5.10;2.88;;;871.00;1100.80;;;;;;5104235;28;20042;-81
2023/09/08 11:45:17;;;;;;;4.40;3.10;;;845.60;1126.40;;;;;;5104429;28;20040;-78
2023/09/08 11:47:44;;;;;;;4.97;3.30;;;845.50;1152.00;;;;;;5112813;28;20039;-82
2023/09/08 11:50:15;;;;;;;4.05;2.83;;;870.60;1126.40;;;;;;5107422;28;20040;-83
2023/09/08 11:52:44;;;;;;;5.78;3.13;;;871.20;1075.20;;;;;;5105905;28;20027;-79
2023/09/08 11:55:11;;;;;;;4.22;2.85;;;871.10;1075.20;;;;;;5117383;28;20039;-81
2023/09/08 11:57:37;;;;;;;6.05;3.13;;;871.00;1075.20;;;;;;5109599;28;20016;-82
2023/09/08 12:00:05;;;;;;;4.70;3.10;;;870.60;1126.40;;;;;;5107224;28;20423;-82
2023/09/08 12:02:35;;;;;;;4.50;3.30;;;870.40;1126.40;;;;;;5097319;28;20024;-78
2023/09/08 12:05:02;;;;;;;4.60;3.17;;;870.40;1126.40;;;;;;5094667;28;20047;-80
2023/09/08 12:07:28;;;;;;;4.00;3.00;;;845.60;1126.40;;;;;;5096872;28;20031;-80
2023/09/08 12:09:58;;;;;;;5.60;3.30;;;845.70;1126.40;;;;;;5109659;28;20035;-80
2023/09/08 12:12:26;;;;;;;4.93;3.20;;;870.80;1100.80;;;;;;5115765;28;20059;-79
2023/09/08 12:14:52;;;;;;;4.68;3.20;;;845.60;1100.80;;;;;;5110950;28;20430;-80
2023/09/08 12:17:18;;;;;;;4.05;3.10;;;845.30;1126.40;;;;;;5114064;28;20023;-80
2023/09/08 12:19:44;;;;;;;4.90;3.25;;;870.40;1100.80;;;;;;5098519;28;20046;-79
2023/09/08 12:22:12;;;;;;;4.30;3.13;;;870.80;1100.80;;;;;;5100231;28;20032;-83
2023/09/08 12:24:49;;;;;;;4.80;3.47;;;871.00;1075.20;;;;;;5102202;28;20393;-81
2023/09/08 12:27:16;;;;;;;3.85;2.80;;;;;;;;;;5101878;28;20035;-80
2023/09/08 12:30:19;;;;;;;3.83;2.88;;;871.00;1100.80;;;;;;5106881;28;20039;-79
2023/09/08 12:32:49;;;;;;;4.70;2.80;;;870.80;1100.80;;;;;;5049268;28;20037;-83
2023/09/08 12:35:22;;;;;;;4.13;2.92;;;871.20;1075.20;;;;;;5026492;28;20074;-81
2023/09/08 12:38:01;;;;;;;4.82;3.00;;;870.40;1100.80;;;;;;5043629;28;20036;-83
2023/09/08 12:40:28;;;;;;;5.45;3.35;;;870.40;1100.80;;;;;;5029880;28;20080;-80
2023/09/08 12:42:55;;;;;;;4.35;3.00;;;845.60;1100.80;;;;;;5034480;28;20064;-78
2023/09/08 12:45:22;;;;;;;4.72;3.20;;;870.60;1126.40;;;;;;5031809;28;20041;-80
2023/09/08 12:47:49;;;;;;;5.22;3.40;;;870.60;1126.40;;;;;;5032710;28;20427;-81
2023/09/08 12:50:14;;;;;;;4.35;3.30;;;870.70;1100.80;;;;;;5017491;28;20430;-80
2023/09/08 12:52:40;;;;;;;4.75;3.17;;;870.70;1100.80;;;;;;5016242;28;20120;-80
2023/09/08 12:55:07;;;;;;;4.97;3.30;;;871.00;1100.80;;;;;;5017277;28;20030;-80
2023/09/08 12:57:33;;;;;;;3.97;3.08;;;871.00;1100.80;;;;;;5033424;28;20047;-80
2023/09/08 12:59:59;;;;;;;4.85;3.08;;;871.20;1100.80;;;;;;5035409;28;20040;-79
2023/09/08 13:02:24;;;;;;;4.13;2.80;;;871.00;1100.80;;;;;;5019520;28;20489;-81
2023/09/08 13:04:50;;;;;;;5.32;2.78;;;896.10;1100.80;;;;;;5043751;28;20037;-81
2023/09/08 13:07:17;;;;;;;4.75;2.90;;;871.30;1075.20;;;;;;5035600;28;20033;-79
2023/09/08 13:09:42;;;;;;;4.40;3.05;;;870.90;1100.80;;;;;;5101936;28;20020;-79
2023/09/08 13:12:14;;;;;;;4.43;3.20;;;870.50;1126.40;;;;;;5104938;28;20028;-78
2023/09/08 13:14:41;;;;;;;4.95;3.28;;;845.60;1152.00;;;;;;5103924;28;20020;-79
2023/09/08 13:17:07;;;;;;;4.15;2.92;;;845.40;1152.00;;;;;;5097968;28;20063;-81